Terminal Aerodrome Forecast
Issued by NWS

Current Version | Previous Version | Text Only | Print | Product List | Glossary Off
Versions: 1 2 3 4 5 6 7 8 9 10 11 12 13 14 15 16 17 18 19 20 21 22 23

995
FTUS41 KPBZ 242320
TAFMGW
TAF
KMGW 242320Z 2500/2524 12012KT P6SM -SHRA OVC090
     FM251100 16006KT 3SM -SHRA OVC025
     FM251400 19005KT P6SM VCSH BKN025
     FM251500 21005KT P6SM -SHRA VCTS BKN035CB=

USA.gov is the U.S. government's official web portal to all federal, state and local government web resources and services.